sensor_id;sensor_type;location;lat;lon;timestamp;temperature;humidity
11005;DHT22;5555;59.622;16.556;2024-02-15T00:01:00;0.40;99.90
11005;DHT22;5555;59.622;16.556;2024-02-15T00:03:26;0.40;99.90
11005;DHT22;5555;59.622;16.556;2024-02-15T00:05:51;0.40;99.90
11005;DHT22;5555;59.622;16.556;2024-02-15T00:08:18;0.40;99.90
11005;DHT22;5555;59.622;16.556;2024-02-15T00:10:45;0.40;99.90
11005;DHT22;5555;59.622;16.556;2024-02-15T00:13:12;0.40;99.90
11005;DHT22;5555;59.622;16.556;2024-02-15T00:15:38;0.40;99.90
11005;DHT22;5555;59.622;16.556;2024-02-15T00:18:03;0.40;99.90
11005;DHT22;5555;59.622;16.556;2024-02-15T00:20:29;0.40;99.90
11005;DHT22;5555;59.622;16.556;2024-02-15T00:22:55;0.40;99.90
11005;DHT22;5555;59.622;16.556;2024-02-15T00:25:21;0.40;99.90
11005;DHT22;5555;59.622;16.556;2024-02-15T00:27:47;0.30;99.90
11005;DHT22;5555;59.622;16.556;2024-02-15T00:30:13;0.30;99.90
11005;DHT22;5555;59.622;16.556;2024-02-15T00:32:38;0.30;99.90
11005;DHT22;5555;59.622;16.556;2024-02-15T00:35:05;0.20;99.90
11005;DHT22;5555;59.622;16.556;2024-02-15T00:37:35;0.20;99.90
11005;DHT22;5555;59.622;16.556;2024-02-15T00:40:01;0.20;99.90
11005;DHT22;5555;59.622;16.556;2024-02-15T00:42:30;0.20;99.90
11005;DHT22;5555;59.622;16.556;2024-02-15T00:44:57;0.20;99.90
11005;DHT22;5555;59.622;16.556;2024-02-15T00:47:23;0.20;99.90
11005;DHT22;5555;59.622;16.556;2024-02-15T00:49:49;0.20;99.90
11005;DHT22;5555;59.622;16.556;2024-02-15T00:52:16;0.20;99.90
11005;DHT22;5555;59.622;16.556;2024-02-15T00:54:44;0.20;99.90
11005;DHT22;5555;59.622;16.556;2024-02-15T00:57:10;0.20;99.90
11005;DHT22;5555;59.622;16.556;2024-02-15T00:59:35;0.20;99.90
11005;DHT22;5555;59.622;16.556;2024-02-15T01:02:01;0.30;99.90
11005;DHT22;5555;59.622;16.556;2024-02-15T01:04:28;0.30;99.90
11005;DHT22;5555;59.622;16.556;2024-02-15T01:06:54;0.30;99.90
11005;DHT22;5555;59.622;16.556;2024-02-15T01:09:19;0.30;99.90
11005;DHT22;5555;59.622;16.556;2024-02-15T01:11:45;0.30;99.90
11005;DHT22;5555;59.622;16.556;2024-02-15T01:14:11;0.40;99.90
11005;DHT22;5555;59.622;16.556;2024-02-15T01:16:37;0.40;99.90
11005;DHT22;5555;59.622;16.556;2024-02-15T01:19:03;0.40;99.90
11005;DHT22;5555;59.622;16.556;2024-02-15T01:21:28;0.40;99.90
11005;DHT22;5555;59.622;16.556;2024-02-15T01:23:54;0.40;99.90
11005;DHT22;5555;59.622;16.556;2024-02-15T01:26:20;0.50;99.90
11005;DHT22;5555;59.622;16.556;2024-02-15T01:28:46;0.40;99.90
11005;DHT22;5555;59.622;16.556;2024-02-15T01:31:11;0.40;99.90
11005;DHT22;5555;59.622;16.556;2024-02-15T01:33:38;0.40;99.90
11005;DHT22;5555;59.622;16.556;2024-02-15T01:36:04;0.40;99.90
11005;DHT22;5555;59.622;16.556;2024-02-15T01:38:30;0.50;99.90
11005;DHT22;5555;59.622;16.556;2024-02-15T01:40:56;0.50;99.90
11005;DHT22;5555;59.622;16.556;2024-02-15T01:43:22;0.50;99.90
11005;DHT22;5555;59.622;16.556;2024-02-15T01:45:47;0.50;99.90
11005;DHT22;5555;59.622;16.556;2024-02-15T01:48:15;0.50;99.90
11005;DHT22;5555;59.622;16.556;2024-02-15T01:50:41;0.40;99.90
11005;DHT22;5555;59.622;16.556;2024-02-15T01:53:09;0.50;99.90
11005;DHT22;5555;59.622;16.556;2024-02-15T01:55:35;0.50;99.90
11005;DHT22;5555;59.622;16.556;2024-02-15T01:58:01;0.50;99.90
11005;DHT22;5555;59.622;16.556;2024-02-15T02:00:28;0.50;99.90
11005;DHT22;5555;59.622;16.556;2024-02-15T02:02:56;0.40;99.90
11005;DHT22;5555;59.622;16.556;2024-02-15T02:05:27;0.40;99.90
11005;DHT22;5555;59.622;16.556;2024-02-15T02:07:53;0.50;99.90
11005;DHT22;5555;59.622;16.556;2024-02-15T02:10:19;0.50;99.90
11005;DHT22;5555;59.622;16.556;2024-02-15T02:12:45;0.50;99.90
11005;DHT22;5555;59.622;16.556;2024-02-15T02:15:11;0.50;99.90
11005;DHT22;5555;59.622;16.556;2024-02-15T02:17:37;0.50;99.90
11005;DHT22;5555;59.622;16.556;2024-02-15T02:20:05;0.50;99.90
11005;DHT22;5555;59.622;16.556;2024-02-15T02:22:35;0.50;99.90
11005;DHT22;5555;59.622;16.556;2024-02-15T02:25:05;0.50;99.90
11005;DHT22;5555;59.622;16.556;2024-02-15T02:27:32;0.50;99.90
11005;DHT22;5555;59.622;16.556;2024-02-15T02:29:58;0.50;99.90
11005;DHT22;5555;59.622;16.556;2024-02-15T02:32:27;0.50;99.90
11005;DHT22;5555;59.622;16.556;2024-02-15T02:34:53;0.50;99.90
11005;DHT22;5555;59.622;16.556;2024-02-15T02:37:25;0.50;99.90
11005;DHT22;5555;59.622;16.556;2024-02-15T02:39:50;0.50;99.90
11005;DHT22;5555;59.622;16.556;2024-02-15T02:42:16;0.50;99.90
11005;DHT22;5555;59.622;16.556;2024-02-15T02:44:42;0.60;99.90
11005;DHT22;5555;59.622;16.556;2024-02-15T02:47:07;0.50;99.90
11005;DHT22;5555;59.622;16.556;2024-02-15T02:49:35;0.60;99.90
11005;DHT22;5555;59.622;16.556;2024-02-15T02:52:01;0.60;99.90
11005;DHT22;5555;59.622;16.556;2024-02-15T02:54:27;0.60;99.90
11005;DHT22;5555;59.622;16.556;2024-02-15T02:56:54;0.60;99.90
11005;DHT22;5555;59.622;16.556;2024-02-15T02:59:20;0.60;99.90
11005;DHT22;5555;59.622;16.556;2024-02-15T03:01:47;0.60;99.90
11005;DHT22;5555;59.622;16.556;2024-02-15T03:04:15;0.60;99.90
11005;DHT22;5555;59.622;16.556;2024-02-15T03:06:45;0.60;99.90
11005;DHT22;5555;59.622;16.556;2024-02-15T03:09:11;0.60;99.90
11005;DHT22;5555;59.622;16.556;2024-02-15T03:11:39;0.60;99.90
11005;DHT22;5555;59.622;16.556;2024-02-15T03:14:05;0.60;99.90
11005;DHT22;5555;59.622;16.556;2024-02-15T03:16:33;0.60;99.90
11005;DHT22;5555;59.622;16.556;2024-02-15T03:18:59;0.70;99.90
11005;DHT22;5555;59.622;16.556;2024-02-15T03:21:28;0.60;99.90
11005;DHT22;5555;59.622;16.556;2024-02-15T03:23:54;0.60;99.90
11005;DHT22;5555;59.622;16.556;2024-02-15T03:26:32;0.60;99.90
11005;DHT22;5555;59.622;16.556;2024-02-15T03:29:02;0.60;99.90
11005;DHT22;5555;59.622;16.556;2024-02-15T03:31:28;0.60;99.90
11005;DHT22;5555;59.622;16.556;2024-02-15T03:33:56;0.60;99.90
11005;DHT22;5555;59.622;16.556;2024-02-15T03:36:22;0.60;99.90
11005;DHT22;5555;59.622;16.556;2024-02-15T03:38:48;0.60;99.90
11005;DHT22;5555;59.622;16.556;2024-02-15T03:41:14;0.60;99.90
11005;DHT22;5555;59.622;16.556;2024-02-15T03:43:40;0.60;99.90
11005;DHT22;5555;59.622;16.556;2024-02-15T03:46:05;0.70;99.90
11005;DHT22;5555;59.622;16.556;2024-02-15T03:48:34;0.60;99.90
11005;DHT22;5555;59.622;16.556;2024-02-15T03:50:59;0.70;99.90
11005;DHT22;5555;59.622;16.556;2024-02-15T03:53:27;0.60;99.90
11005;DHT22;5555;59.622;16.556;2024-02-15T03:55:55;0.70;99.90
11005;DHT22;5555;59.622;16.556;2024-02-15T03:58:21;0.70;99.90
11005;DHT22;5555;59.622;16.556;2024-02-15T04:00:47;0.70;99.90
11005;DHT22;5555;59.622;16.556;2024-02-15T04:03:12;0.70;99.90
11005;DHT22;5555;59.622;16.556;2024-02-15T04:05:38;0.70;99.90
11005;DHT22;5555;59.622;16.556;2024-02-15T04:08:05;0.70;99.90
11005;DHT22;5555;59.622;16.556;2024-02-15T04:10:30;0.80;99.90
11005;DHT22;5555;59.622;16.556;2024-02-15T04:12:56;0.80;99.90
11005;DHT22;5555;59.622;16.556;2024-02-15T04:15:23;0.70;99.90
11005;DHT22;5555;59.622;16.556;2024-02-15T04:17:49;0.80;99.90
11005;DHT22;5555;59.622;16.556;2024-02-15T04:20:21;0.80;99.90
11005;DHT22;5555;59.622;16.556;2024-02-15T04:22:47;0.80;99.90
11005;DHT22;5555;59.622;16.556;2024-02-15T04:25:15;0.80;99.90
11005;DHT22;5555;59.622;16.556;2024-02-15T04:27:46;0.80;99.90
11005;DHT22;5555;59.622;16.556;2024-02-15T04:30:12;0.80;99.90
11005;DHT22;5555;59.622;16.556;2024-02-15T04:32:38;0.80;99.90
11005;DHT22;5555;59.622;16.556;2024-02-15T04:35:04;0.80;99.90
11005;DHT22;5555;59.622;16.556;2024-02-15T04:37:31;0.80;99.90
11005;DHT22;5555;59.622;16.556;2024-02-15T04:39:58;0.80;99.90
11005;DHT22;5555;59.622;16.556;2024-02-15T04:42:24;0.80;99.90
11005;DHT22;5555;59.622;16.556;2024-02-15T04:44:53;0.90;99.90
11005;DHT22;5555;59.622;16.556;2024-02-15T04:47:19;0.90;99.90
11005;DHT22;5555;59.622;16.556;2024-02-15T04:49:45;0.90;99.90
11005;DHT22;5555;59.622;16.556;2024-02-15T04:52:11;0.90;99.90
11005;DHT22;5555;59.622;16.556;2024-02-15T04:54:37;0.90;99.90
11005;DHT22;5555;59.622;16.556;2024-02-15T04:57:03;0.90;99.90
11005;DHT22;5555;59.622;16.556;2024-02-15T04:59:29;0.90;99.90
11005;DHT22;5555;59.622;16.556;2024-02-15T05:01:57;0.90;99.90
11005;DHT22;5555;59.622;16.556;2024-02-15T05:04:23;0.90;99.90
11005;DHT22;5555;59.622;16.556;2024-02-15T05:06:50;1.00;99.90
11005;DHT22;5555;59.622;16.556;2024-02-15T05:09:16;1.00;99.90
11005;DHT22;5555;59.622;16.556;2024-02-15T05:11:44;1.00;99.90
11005;DHT22;5555;59.622;16.556;2024-02-15T05:14:15;1.00;99.90
11005;DHT22;5555;59.622;16.556;2024-02-15T05:16:48;1.00;99.90
11005;DHT22;5555;59.622;16.556;2024-02-15T05:19:17;1.00;99.90
11005;DHT22;5555;59.622;16.556;2024-02-15T05:21:43;1.00;99.90
11005;DHT22;5555;59.622;16.556;2024-02-15T05:24:16;1.00;99.90
11005;DHT22;5555;59.622;16.556;2024-02-15T05:26:44;0.90;99.90
11005;DHT22;5555;59.622;16.556;2024-02-15T05:29:12;0.90;99.90
11005;DHT22;5555;59.622;16.556;2024-02-15T05:31:38;1.00;99.90
11005;DHT22;5555;59.622;16.556;2024-02-15T05:34:06;0.90;99.90
11005;DHT22;5555;59.622;16.556;2024-02-15T05:36:33;0.90;99.90
11005;DHT22;5555;59.622;16.556;2024-02-15T05:38:59;1.00;99.90
11005;DHT22;5555;59.622;16.556;2024-02-15T05:41:25;1.00;99.90
11005;DHT22;5555;59.622;16.556;2024-02-15T05:43:51;1.00;99.90
11005;DHT22;5555;59.622;16.556;2024-02-15T05:46:20;1.00;99.90
11005;DHT22;5555;59.622;16.556;2024-02-15T05:48:48;1.00;99.90
11005;DHT22;5555;59.622;16.556;2024-02-15T05:51:14;1.00;99.90
11005;DHT22;5555;59.622;16.556;2024-02-15T05:53:41;1.00;99.90
11005;DHT22;5555;59.622;16.556;2024-02-15T05:56:08;1.00;99.90
11005;DHT22;5555;59.622;16.556;2024-02-15T05:58:34;1.00;99.90
11005;DHT22;5555;59.622;16.556;2024-02-15T06:01:01;1.00;99.90
11005;DHT22;5555;59.622;16.556;2024-02-15T06:03:31;1.00;99.90
11005;DHT22;5555;59.622;16.556;2024-02-15T06:06:01;1.00;99.90
11005;DHT22;5555;59.622;16.556;2024-02-15T06:08:34;1.00;99.90
11005;DHT22;5555;59.622;16.556;2024-02-15T06:11:00;1.00;99.90
11005;DHT22;5555;59.622;16.556;2024-02-15T06:13:27;1.00;99.90
11005;DHT22;5555;59.622;16.556;2024-02-15T06:15:53;1.00;99.90
11005;DHT22;5555;59.622;16.556;2024-02-15T06:18:27;1.00;99.90
11005;DHT22;5555;59.622;16.556;2024-02-15T06:20:57;1.00;99.90
11005;DHT22;5555;59.622;16.556;2024-02-15T06:23:25;1.00;99.90
11005;DHT22;5555;59.622;16.556;2024-02-15T06:25:53;1.00;99.90
11005;DHT22;5555;59.622;16.556;2024-02-15T06:28:22;1.10;99.90
11005;DHT22;5555;59.622;16.556;2024-02-15T06:31:10;1.10;99.90
11005;DHT22;5555;59.622;16.556;2024-02-15T06:33:55;1.10;99.90
11005;DHT22;5555;59.622;16.556;2024-02-15T06:36:47;1.00;99.90
11005;DHT22;5555;59.622;16.556;2024-02-15T06:39:31;1.00;99.90
11005;DHT22;5555;59.622;16.556;2024-02-15T06:42:04;1.00;99.90
11005;DHT22;5555;59.622;16.556;2024-02-15T06:44:29;1.00;99.90
11005;DHT22;5555;59.622;16.556;2024-02-15T06:46:55;1.10;99.90
11005;DHT22;5555;59.622;16.556;2024-02-15T06:49:22;1.10;99.90
11005;DHT22;5555;59.622;16.556;2024-02-15T06:51:50;1.10;99.90
11005;DHT22;5555;59.622;16.556;2024-02-15T06:54:16;1.10;99.90
11005;DHT22;5555;59.622;16.556;2024-02-15T06:56:44;1.10;99.90
11005;DHT22;5555;59.622;16.556;2024-02-15T06:59:12;1.20;99.90
11005;DHT22;5555;59.622;16.556;2024-02-15T07:01:42;1.20;99.90
11005;DHT22;5555;59.622;16.556;2024-02-15T07:04:08;1.20;99.90
11005;DHT22;5555;59.622;16.556;2024-02-15T07:06:38;1.20;99.90
11005;DHT22;5555;59.622;16.556;2024-02-15T07:09:05;1.20;99.90
11005;DHT22;5555;59.622;16.556;2024-02-15T07:11:34;1.20;99.90
11005;DHT22;5555;59.622;16.556;2024-02-15T07:14:01;1.20;99.90
11005;DHT22;5555;59.622;16.556;2024-02-15T07:16:26;1.30;99.90
11005;DHT22;5555;59.622;16.556;2024-02-15T07:18:52;1.30;99.90
11005;DHT22;5555;59.622;16.556;2024-02-15T07:21:19;1.30;99.90
11005;DHT22;5555;59.622;16.556;2024-02-15T07:23:48;1.30;99.90
11005;DHT22;5555;59.622;16.556;2024-02-15T07:26:14;1.30;99.90
11005;DHT22;5555;59.622;16.556;2024-02-15T07:28:40;1.30;99.90
11005;DHT22;5555;59.622;16.556;2024-02-15T07:31:06;1.30;99.90
11005;DHT22;5555;59.622;16.556;2024-02-15T07:33:32;1.40;99.90
11005;DHT22;5555;59.622;16.556;2024-02-15T07:36:00;1.40;99.90
11005;DHT22;5555;59.622;16.556;2024-02-15T07:38:26;1.40;99.90
11005;DHT22;5555;59.622;16.556;2024-02-15T07:40:52;1.40;99.90
11005;DHT22;5555;59.622;16.556;2024-02-15T07:43:17;1.40;99.90
11005;DHT22;5555;59.622;16.556;2024-02-15T07:45:43;1.40;99.90
11005;DHT22;5555;59.622;16.556;2024-02-15T07:48:09;1.40;99.90
11005;DHT22;5555;59.622;16.556;2024-02-15T07:50:34;1.50;99.90
11005;DHT22;5555;59.622;16.556;2024-02-15T07:53:03;1.50;99.90
11005;DHT22;5555;59.622;16.556;2024-02-15T07:55:30;1.60;99.90
11005;DHT22;5555;59.622;16.556;2024-02-15T07:57:56;1.60;99.90
11005;DHT22;5555;59.622;16.556;2024-02-15T08:00:24;1.60;99.90
11005;DHT22;5555;59.622;16.556;2024-02-15T08:02:52;1.60;99.90
11005;DHT22;5555;59.622;16.556;2024-02-15T08:05:19;1.70;99.90
11005;DHT22;5555;59.622;16.556;2024-02-15T08:07:46;1.70;99.90
11005;DHT22;5555;59.622;16.556;2024-02-15T08:10:17;1.80;99.90
11005;DHT22;5555;59.622;16.556;2024-02-15T08:12:44;1.70;99.90
11005;DHT22;5555;59.622;16.556;2024-02-15T08:15:12;1.60;99.90
11005;DHT22;5555;59.622;16.556;2024-02-15T08:17:43;1.70;99.90
11005;DHT22;5555;59.622;16.556;2024-02-15T08:20:11;1.70;99.90
11005;DHT22;5555;59.622;16.556;2024-02-15T08:22:39;1.70;99.90
11005;DHT22;5555;59.622;16.556;2024-02-15T08:25:12;1.70;99.90
11005;DHT22;5555;59.622;16.556;2024-02-15T08:27:39;1.70;99.90
11005;DHT22;5555;59.622;16.556;2024-02-15T08:30:10;1.70;99.90
11005;DHT22;5555;59.622;16.556;2024-02-15T08:32:38;1.70;99.90
11005;DHT22;5555;59.622;16.556;2024-02-15T08:35:08;1.80;99.90
11005;DHT22;5555;59.622;16.556;2024-02-15T08:37:37;1.80;99.90
11005;DHT22;5555;59.622;16.556;2024-02-15T08:40:04;1.90;99.90
11005;DHT22;5555;59.622;16.556;2024-02-15T08:42:30;1.90;99.90
11005;DHT22;5555;59.622;16.556;2024-02-15T08:44:57;2.00;99.90
11005;DHT22;5555;59.622;16.556;2024-02-15T08:47:24;1.90;99.90
11005;DHT22;5555;59.622;16.556;2024-02-15T08:49:50;1.90;99.90
11005;DHT22;5555;59.622;16.556;2024-02-15T08:52:15;1.90;99.90
11005;DHT22;5555;59.622;16.556;2024-02-15T08:54:43;2.00;99.90
11005;DHT22;5555;59.622;16.556;2024-02-15T08:57:09;2.00;99.90
11005;DHT22;5555;59.622;16.556;2024-02-15T08:59:37;2.00;99.90
11005;DHT22;5555;59.622;16.556;2024-02-15T09:02:04;2.00;99.90
11005;DHT22;5555;59.622;16.556;2024-02-15T09:04:31;2.10;99.90
11005;DHT22;5555;59.622;16.556;2024-02-15T09:06:56;2.20;99.90
11005;DHT22;5555;59.622;16.556;2024-02-15T09:09:22;2.10;99.90
11005;DHT22;5555;59.622;16.556;2024-02-15T09:11:48;2.20;99.90
11005;DHT22;5555;59.622;16.556;2024-02-15T09:14:13;2.10;99.90
11005;DHT22;5555;59.622;16.556;2024-02-15T09:16:39;2.10;99.90
11005;DHT22;5555;59.622;16.556;2024-02-15T09:19:05;2.20;99.90
11005;DHT22;5555;59.622;16.556;2024-02-15T09:21:32;2.10;99.90
11005;DHT22;5555;59.622;16.556;2024-02-15T09:23:59;2.20;99.90
11005;DHT22;5555;59.622;16.556;2024-02-15T09:26:25;2.20;99.90
11005;DHT22;5555;59.622;16.556;2024-02-15T09:28:53;2.30;99.90
11005;DHT22;5555;59.622;16.556;2024-02-15T09:31:19;2.30;99.90
11005;DHT22;5555;59.622;16.556;2024-02-15T09:33:44;2.30;99.90
11005;DHT22;5555;59.622;16.556;2024-02-15T09:36:11;2.50;99.90
11005;DHT22;5555;59.622;16.556;2024-02-15T09:38:37;2.60;99.90
11005;DHT22;5555;59.622;16.556;2024-02-15T09:41:03;2.60;99.90
11005;DHT22;5555;59.622;16.556;2024-02-15T09:43:34;2.80;99.90
11005;DHT22;5555;59.622;16.556;2024-02-15T09:45:59;2.70;99.90
11005;DHT22;5555;59.622;16.556;2024-02-15T09:48:30;2.90;99.90
11005;DHT22;5555;59.622;16.556;2024-02-15T09:50:57;2.90;99.90
11005;DHT22;5555;59.622;16.556;2024-02-15T09:53:24;2.90;99.90
11005;DHT22;5555;59.622;16.556;2024-02-15T09:55:56;2.90;99.90
11005;DHT22;5555;59.622;16.556;2024-02-15T09:58:29;2.90;99.90
11005;DHT22;5555;59.622;16.556;2024-02-15T10:01:00;2.90;99.90
11005;DHT22;5555;59.622;16.556;2024-02-15T10:03:29;2.90;99.90
11005;DHT22;5555;59.622;16.556;2024-02-15T10:05:56;2.90;99.90
11005;DHT22;5555;59.622;16.556;2024-02-15T10:08:23;2.80;99.90
11005;DHT22;5555;59.622;16.556;2024-02-15T10:11:06;2.70;99.90
11005;DHT22;5555;59.622;16.556;2024-02-15T10:13:32;2.80;99.90
11005;DHT22;5555;59.622;16.556;2024-02-15T10:15:58;2.90;99.90
11005;DHT22;5555;59.622;16.556;2024-02-15T10:18:24;3.00;99.90
11005;DHT22;5555;59.622;16.556;2024-02-15T10:20:58;3.00;99.90
11005;DHT22;5555;59.622;16.556;2024-02-15T10:23:24;2.90;99.90
11005;DHT22;5555;59.622;16.556;2024-02-15T10:25:49;3.00;99.90
11005;DHT22;5555;59.622;16.556;2024-02-15T10:28:21;3.20;99.90
11005;DHT22;5555;59.622;16.556;2024-02-15T10:30:48;3.30;99.90
11005;DHT22;5555;59.622;16.556;2024-02-15T10:33:34;3.40;99.90
11005;DHT22;5555;59.622;16.556;2024-02-15T10:36:10;3.70;99.90
11005;DHT22;5555;59.622;16.556;2024-02-15T10:38:37;4.30;99.90
11005;DHT22;5555;59.622;16.556;2024-02-15T10:41:06;4.30;99.90
11005;DHT22;5555;59.622;16.556;2024-02-15T10:43:35;4.30;99.90
11005;DHT22;5555;59.622;16.556;2024-02-15T10:46:05;4.50;99.90
11005;DHT22;5555;59.622;16.556;2024-02-15T10:48:35;4.50;99.90
11005;DHT22;5555;59.622;16.556;2024-02-15T10:51:03;4.70;99.90
11005;DHT22;5555;59.622;16.556;2024-02-15T10:53:35;4.80;99.90
11005;DHT22;5555;59.622;16.556;2024-02-15T10:56:19;4.70;99.90
11005;DHT22;5555;59.622;16.556;2024-02-15T10:59:02;4.70;99.90
11005;DHT22;5555;59.622;16.556;2024-02-15T11:01:34;4.70;99.90
11005;DHT22;5555;59.622;16.556;2024-02-15T11:04:07;4.80;99.90
11005;DHT22;5555;59.622;16.556;2024-02-15T11:06:38;4.90;99.90
11005;DHT22;5555;59.622;16.556;2024-02-15T11:09:07;4.90;99.90
11005;DHT22;5555;59.622;16.556;2024-02-15T11:11:34;4.80;99.90
11005;DHT22;5555;59.622;16.556;2024-02-15T11:14:23;4.80;99.90
11005;DHT22;5555;59.622;16.556;2024-02-15T11:16:48;4.70;99.90
11005;DHT22;5555;59.622;16.556;2024-02-15T11:22:10;4.40;99.90
11005;DHT22;5555;59.622;16.556;2024-02-15T11:24:36;4.50;99.90
11005;DHT22;5555;59.622;16.556;2024-02-15T11:27:03;4.50;99.90
11005;DHT22;5555;59.622;16.556;2024-02-15T11:29:55;4.50;99.90
11005;DHT22;5555;59.622;16.556;2024-02-15T11:35:26;4.50;99.90
11005;DHT22;5555;59.622;16.556;2024-02-15T11:37:51;4.40;99.90
11005;DHT22;5555;59.622;16.556;2024-02-15T11:43:07;4.40;99.90
11005;DHT22;5555;59.622;16.556;2024-02-15T11:45:34;4.30;99.90
11005;DHT22;5555;59.622;16.556;2024-02-15T11:48:08;4.40;99.90
11005;DHT22;5555;59.622;16.556;2024-02-15T11:50:38;4.20;99.90
11005;DHT22;5555;59.622;16.556;2024-02-15T11:53:06;4.30;99.90
11005;DHT22;5555;59.622;16.556;2024-02-15T11:55:35;4.40;99.90
11005;DHT22;5555;59.622;16.556;2024-02-15T11:58:04;4.50;99.90
11005;DHT22;5555;59.622;16.556;2024-02-15T12:00:41;4.60;99.90
11005;DHT22;5555;59.622;16.556;2024-02-15T12:03:26;4.10;99.90
11005;DHT22;5555;59.622;16.556;2024-02-15T12:06:11;4.10;99.90
11005;DHT22;5555;59.622;16.556;2024-02-15T12:08:55;4.30;99.90
11005;DHT22;5555;59.622;16.556;2024-02-15T12:11:40;4.20;99.90
11005;DHT22;5555;59.622;16.556;2024-02-15T12:14:25;4.10;99.90
11005;DHT22;5555;59.622;16.556;2024-02-15T12:17:11;4.00;99.90
11005;DHT22;5555;59.622;16.556;2024-02-15T12:19:57;3.60;99.90
11005;DHT22;5555;59.622;16.556;2024-02-15T12:22:34;3.60;99.90
11005;DHT22;5555;59.622;16.556;2024-02-15T12:25:02;3.50;99.90
11005;DHT22;5555;59.622;16.556;2024-02-15T12:27:55;3.80;99.90
11005;DHT22;5555;59.622;16.556;2024-02-15T12:30:21;3.80;99.90
11005;DHT22;5555;59.622;16.556;2024-02-15T12:32:51;3.60;99.90
11005;DHT22;5555;59.622;16.556;2024-02-15T12:35:19;3.60;99.90
11005;DHT22;5555;59.622;16.556;2024-02-15T12:38:00;3.60;99.90
11005;DHT22;5555;59.622;16.556;2024-02-15T12:40:37;3.50;99.90
11005;DHT22;5555;59.622;16.556;2024-02-15T12:43:07;3.50;99.90
11005;DHT22;5555;59.622;16.556;2024-02-15T12:45:36;3.10;99.90
11005;DHT22;5555;59.622;16.556;2024-02-15T12:48:06;2.90;99.90
11005;DHT22;5555;59.622;16.556;2024-02-15T12:50:33;2.70;99.90
11005;DHT22;5555;59.622;16.556;2024-02-15T12:53:00;2.70;99.90
11005;DHT22;5555;59.622;16.556;2024-02-15T12:55:39;2.70;99.90
11005;DHT22;5555;59.622;16.556;2024-02-15T12:58:12;2.70;99.90
11005;DHT22;5555;59.622;16.556;2024-02-15T13:00:40;2.80;99.90
11005;DHT22;5555;59.622;16.556;2024-02-15T13:03:07;2.90;99.90
11005;DHT22;5555;59.622;16.556;2024-02-15T13:05:38;3.20;99.90
11005;DHT22;5555;59.622;16.556;2024-02-15T13:08:04;3.20;99.90
11005;DHT22;5555;59.622;16.556;2024-02-15T13:10:38;3.20;99.90
11005;DHT22;5555;59.622;16.556;2024-02-15T13:13:07;3.20;99.90
11005;DHT22;5555;59.622;16.556;2024-02-15T13:15:34;3.20;99.90
11005;DHT22;5555;59.622;16.556;2024-02-15T13:18:02;3.20;99.90
11005;DHT22;5555;59.622;16.556;2024-02-15T13:20:31;3.30;99.90
11005;DHT22;5555;59.622;16.556;2024-02-15T13:23:02;3.40;99.90
11005;DHT22;5555;59.622;16.556;2024-02-15T13:25:37;3.50;99.90
11005;DHT22;5555;59.622;16.556;2024-02-15T13:28:05;3.30;99.90
11005;DHT22;5555;59.622;16.556;2024-02-15T13:30:32;3.10;99.90
11005;DHT22;5555;59.622;16.556;2024-02-15T13:32:57;3.20;99.90
11005;DHT22;5555;59.622;16.556;2024-02-15T13:35:23;3.10;99.90
11005;DHT22;5555;59.622;16.556;2024-02-15T13:37:54;3.10;99.90
11005;DHT22;5555;59.622;16.556;2024-02-15T13:40:20;2.90;99.90
11005;DHT22;5555;59.622;16.556;2024-02-15T13:42:50;2.90;99.90
11005;DHT22;5555;59.622;16.556;2024-02-15T13:45:23;2.90;99.90
11005;DHT22;5555;59.622;16.556;2024-02-15T13:47:52;2.70;99.90
11005;DHT22;5555;59.622;16.556;2024-02-15T13:50:21;2.70;99.90
11005;DHT22;5555;59.622;16.556;2024-02-15T13:52:47;2.70;99.90
11005;DHT22;5555;59.622;16.556;2024-02-15T13:55:14;2.50;99.90
11005;DHT22;5555;59.622;16.556;2024-02-15T13:57:41;2.40;99.90
11005;DHT22;5555;59.622;16.556;2024-02-15T14:00:11;2.30;99.90
11005;DHT22;5555;59.622;16.556;2024-02-15T14:02:40;2.20;99.90
11005;DHT22;5555;59.622;16.556;2024-02-15T14:05:06;2.30;99.90
11005;DHT22;5555;59.622;16.556;2024-02-15T14:07:34;2.30;99.90
11005;DHT22;5555;59.622;16.556;2024-02-15T14:10:04;2.20;99.90
11005;DHT22;5555;59.622;16.556;2024-02-15T14:12:30;2.30;99.90
11005;DHT22;5555;59.622;16.556;2024-02-15T14:14:56;2.20;99.90
11005;DHT22;5555;59.622;16.556;2024-02-15T14:17:22;2.20;99.90
11005;DHT22;5555;59.622;16.556;2024-02-15T14:19:48;2.20;99.90
11005;DHT22;5555;59.622;16.556;2024-02-15T14:22:14;2.10;99.90
11005;DHT22;5555;59.622;16.556;2024-02-15T14:24:44;2.20;99.90
11005;DHT22;5555;59.622;16.556;2024-02-15T14:27:11;2.10;99.90
11005;DHT22;5555;59.622;16.556;2024-02-15T14:29:37;2.00;99.90
11005;DHT22;5555;59.622;16.556;2024-02-15T14:32:11;2.00;99.90
11005;DHT22;5555;59.622;16.556;2024-02-15T14:34:55;2.10;99.90
11005;DHT22;5555;59.622;16.556;2024-02-15T14:37:22;2.00;99.90
11005;DHT22;5555;59.622;16.556;2024-02-15T14:39:47;2.00;99.90
11005;DHT22;5555;59.622;16.556;2024-02-15T14:42:13;2.00;99.90
11005;DHT22;5555;59.622;16.556;2024-02-15T14:44:39;1.90;99.90
11005;DHT22;5555;59.622;16.556;2024-02-15T14:47:05;1.90;99.90
11005;DHT22;5555;59.622;16.556;2024-02-15T14:49:31;1.90;99.90
11005;DHT22;5555;59.622;16.556;2024-02-15T14:51:56;1.80;99.90
11005;DHT22;5555;59.622;16.556;2024-02-15T14:54:22;1.70;99.90
11005;DHT22;5555;59.622;16.556;2024-02-15T14:56:48;1.60;99.90
11005;DHT22;5555;59.622;16.556;2024-02-15T14:59:13;1.60;99.90
11005;DHT22;5555;59.622;16.556;2024-02-15T15:01:40;1.60;99.90
11005;DHT22;5555;59.622;16.556;2024-02-15T15:04:06;1.60;99.90
11005;DHT22;5555;59.622;16.556;2024-02-15T15:06:33;1.60;99.90
11005;DHT22;5555;59.622;16.556;2024-02-15T15:09:17;1.60;99.90
11005;DHT22;5555;59.622;16.556;2024-02-15T15:12:01;1.60;99.90
11005;DHT22;5555;59.622;16.556;2024-02-15T15:14:46;1.70;99.90
11005;DHT22;5555;59.622;16.556;2024-02-15T15:17:11;1.70;99.90
11005;DHT22;5555;59.622;16.556;2024-02-15T15:19:41;1.60;99.90
11005;DHT22;5555;59.622;16.556;2024-02-15T15:22:07;1.60;99.90
11005;DHT22;5555;59.622;16.556;2024-02-15T15:24:33;1.60;99.90
11005;DHT22;5555;59.622;16.556;2024-02-15T15:26:59;1.50;99.90
11005;DHT22;5555;59.622;16.556;2024-02-15T15:29:25;1.50;99.90
11005;DHT22;5555;59.622;16.556;2024-02-15T15:31:51;1.40;99.90
11005;DHT22;5555;59.622;16.556;2024-02-15T15:34:17;1.40;99.90
11005;DHT22;5555;59.622;16.556;2024-02-15T15:36:45;1.40;99.90
11005;DHT22;5555;59.622;16.556;2024-02-15T15:39:13;1.40;99.90
11005;DHT22;5555;59.622;16.556;2024-02-15T15:41:39;1.40;99.90
11005;DHT22;5555;59.622;16.556;2024-02-15T15:44:05;1.40;99.90
11005;DHT22;5555;59.622;16.556;2024-02-15T15:46:31;1.40;99.90
11005;DHT22;5555;59.622;16.556;2024-02-15T15:48:59;1.30;99.90
11005;DHT22;5555;59.622;16.556;2024-02-15T15:51:25;1.30;99.90
11005;DHT22;5555;59.622;16.556;2024-02-15T15:53:52;1.40;99.90
11005;DHT22;5555;59.622;16.556;2024-02-15T15:56:20;1.50;99.90
11005;DHT22;5555;59.622;16.556;2024-02-15T15:58:47;1.40;99.90
11005;DHT22;5555;59.622;16.556;2024-02-15T16:01:14;1.40;99.90